ベルリン/テーゲル の空港の天気 - METARとTAF

ベルリン・テーゲル国際空港 ( EDDT / TXL ) - ドイツ ベルリン
飛行場実況気象(Metar)
観測時間10/20 04:50 CEST (10/20 02:50 UTC)
風向・風速南東 2m/s
視程10km以上
天気現象
なし
気温10℃
湿度94%
気圧1013hPa
METAREDDT 200250Z 13004KT 110V170 CAVOK 10/09 Q1013 NOSIG
過去の天気等 Google飛行場航空写真 Wunderground天気予報

過去48時間のMETAR

飛行場予報(TAF)
発表時間: 10/20 01:00 CEST (10/19 23:00 UTC)
予報対象時間: 20日2時 CEST ~ 21日2時 CEST
風向・風速南東 3m/s
視程7,000m
なし
20日2時 CEST ~ 20日10時 CEST に一時的に
視程2,500m
天気現象散在した霧
20日3時 CEST ~ 20日9時 CEST に 確率 40% で一時的に
視程700m
天気現象
20日5時 CEST ~ 20日9時 CEST に 確率 30% で一時的に
全天の8割程度の雲 雲底高度 30m
20日17時 CEST ~ 20日19時 CEST に徐々に
風向・風速南 4m/s
TAF EDDT 192300Z 2000/2024 13005KT 7000 NSC
TEMPO 2000/2008 2500 BCFG
PROB40 TEMPO 2001/2007 0700 FG
PROB30 TEMPO 2003/2007 BKN001
BECMG 2015/2017 19007KT